Time;durP1;ratioP1;P1;durP2;ratioP2;P2;SDS_P1;SDS_P2;PMS_P1;PMS_P2;Temp;Humidity;BMP_temperature;BMP_pressure;BME280_temperature;BME280_humidity;BME280_pressure;Samples;Min_cycle;Max_cycle;Signal;HPM_P1;HPM_P2
2021/10/25 00:00:51;;;;;;;22.05;13.10;;;6.90;99.90;;;;;;5070667;28;20373;-85
2021/10/25 00:03:17;;;;;;;22.33;13.60;;;6.90;99.90;;;;;;5015054;28;20124;-85
2021/10/25 00:05:43;;;;;;;21.27;12.98;;;6.90;99.90;;;;;;5042477;28;20041;-86
2021/10/25 00:08:08;;;;;;;20.75;13.10;;;6.80;99.90;;;;;;5032598;28;20033;-86
2021/10/25 00:10:34;;;;;;;19.52;13.10;;;6.80;99.90;;;;;;5027346;28;20625;-86
2021/10/25 00:13:00;;;;;;;23.23;13.48;;;6.80;99.90;;;;;;5030547;28;20033;-86
2021/10/25 00:15:26;;;;;;;19.65;13.93;;;6.70;99.90;;;;;;5016713;28;20092;-86
2021/10/25 00:17:52;;;;;;;20.95;14.05;;;6.70;99.90;;;;;;5077888;28;20040;-86
2021/10/25 00:20:19;;;;;;;20.73;13.23;;;6.80;99.90;;;;;;5070247;28;20119;-86
2021/10/25 00:22:53;;;;;;;22.98;14.05;;;6.70;99.90;;;;;;5029654;28;20131;-86
2021/10/25 00:25:19;;;;;;;21.95;13.68;;;6.80;99.90;;;;;;5025469;28;20036;-86
2021/10/25 00:27:44;;;;;;;20.88;13.85;;;6.70;99.90;;;;;;5055226;28;20037;-86
2021/10/25 00:30:10;;;;;;;20.90;13.55;;;6.70;99.90;;;;;;5029676;28;20092;-86
2021/10/25 00:32:37;;;;;;;25.08;14.18;;;6.70;99.90;;;;;;5065301;28;20071;-86
2021/10/25 00:35:03;;;;;;;21.38;14.60;;;6.70;99.90;;;;;;5052017;28;20109;-86
2021/10/25 00:37:32;;;;;;;21.15;13.68;;;6.70;99.90;;;;;;5050252;28;20033;-86
2021/10/25 00:39:58;;;;;;;18.83;13.75;;;6.70;99.90;;;;;;5029749;28;20064;-86
2021/10/25 00:42:24;;;;;;;21.80;13.77;;;6.60;99.90;;;;;;5040050;28;20036;-86
2021/10/25 00:44:53;;;;;;;20.20;13.82;;;6.60;99.90;;;;;;5055202;28;20052;-86
2021/10/25 00:47:19;;;;;;;22.30;14.88;;;6.60;99.90;;;;;;5031753;28;20044;-85
2021/10/25 00:49:45;;;;;;;23.75;13.77;;;6.60;99.90;;;;;;5066910;28;20033;-87
2021/10/25 00:52:11;;;;;;;23.77;14.00;;;6.60;99.90;;;;;;5046110;28;20098;-86
2021/10/25 00:54:37;;;;;;;21.70;14.55;;;6.60;99.90;;;;;;5075074;28;20147;-86
2021/10/25 00:57:11;;;;;;;27.00;14.32;;;6.60;99.90;;;;;;5032593;28;20535;-86
2021/10/25 00:59:37;;;;;;;21.02;14.27;;;6.60;99.90;;;;;;5049404;28;20043;-86
2021/10/25 01:02:04;;;;;;;20.35;14.23;;;6.50;99.90;;;;;;5099135;28;20328;-86
2021/10/25 01:04:31;;;;;;;18.20;13.77;;;6.60;99.90;;;;;;5034501;28;20037;-86
2021/10/25 01:07:00;;;;;;;20.10;14.02;;;6.60;99.90;;;;;;5067538;28;20033;-86
2021/10/25 01:09:27;;;;;;;21.77;14.70;;;6.50;99.90;;;;;;5074545;28;20090;-86
2021/10/25 01:11:54;;;;;;;23.98;15.05;;;6.60;99.90;;;;;;5058157;28;20511;-86
2021/10/25 01:14:20;;;;;;;23.17;14.40;;;6.50;99.90;;;;;;5054925;28;20036;-86
2021/10/25 01:16:46;;;;;;;24.70;14.60;;;6.50;99.90;;;;;;5063517;28;20033;-86
2021/10/25 01:19:12;;;;;;;25.42;14.85;;;6.50;99.90;;;;;;5050826;28;20399;-86
2021/10/25 01:21:37;;;;;;;29.60;14.98;;;6.50;99.90;;;;;;5050751;28;20048;-85
2021/10/25 01:24:10;;;;;;;25.65;15.60;;;6.60;99.90;;;;;;5064147;28;20488;-86
2021/10/25 01:26:36;;;;;;;19.58;14.70;;;6.50;99.90;;;;;;5029448;28;20141;-85
2021/10/25 01:29:02;;;;;;;24.30;14.90;;;6.50;99.90;;;;;;5048455;28;20111;-87
2021/10/25 01:31:48;;;;;;;21.92;15.07;;;6.50;99.90;;;;;;5056283;28;20028;-86
2021/10/25 01:34:15;;;;;;;21.08;15.15;;;6.60;99.90;;;;;;5035849;28;20529;-86
2021/10/25 01:36:41;;;;;;;20.88;14.23;;;6.60;99.90;;;;;;5045039;28;20129;-85
2021/10/25 01:39:08;;;;;;;20.50;14.70;;;6.60;99.90;;;;;;5041412;28;20040;-87
2021/10/25 01:41:34;;;;;;;22.15;13.90;;;6.60;99.90;;;;;;5036044;28;20048;-86
2021/10/25 01:44:00;;;;;;;22.67;14.40;;;6.50;99.90;;;;;;5053438;28;20715;-86
2021/10/25 01:46:26;;;;;;;25.08;14.80;;;6.50;99.90;;;;;;5071182;28;20447;-85
2021/10/25 01:48:52;;;;;;;22.33;15.50;;;6.50;99.90;;;;;;5042579;28;20336;-86
2021/10/25 01:51:18;;;;;;;24.98;15.05;;;6.50;99.90;;;;;;5033452;28;20068;-85
2021/10/25 01:53:45;;;;;;;26.75;15.23;;;6.40;99.90;;;;;;5065752;28;20032;-87
2021/10/25 01:56:11;;;;;;;21.90;14.20;;;6.40;99.90;;;;;;5036698;28;20503;-86
2021/10/25 01:58:38;;;;;;;23.45;14.55;;;6.30;99.90;;;;;;5040052;28;20043;-85
2021/10/25 02:01:05;;;;;;;23.73;14.95;;;6.30;99.90;;;;;;5063737;28;20507;-86
2021/10/25 02:03:37;;;;;;;22.58;14.60;;;6.30;99.90;;;;;;5064920;28;20377;-86
2021/10/25 02:06:08;;;;;;;23.67;14.50;;;6.20;99.90;;;;;;5068887;28;20032;-86
2021/10/25 02:08:34;;;;;;;24.25;15.82;;;6.20;99.90;;;;;;5034537;28;20051;-87
2021/10/25 02:11:05;;;;;;;27.48;16.65;;;6.10;99.90;;;;;;5048248;28;20036;-85
2021/10/25 02:13:31;;;;;;;23.77;16.23;;;6.10;99.90;;;;;;5083716;28;20028;-86
2021/10/25 02:16:01;;;;;;;24.52;15.88;;;6.10;99.90;;;;;;5031945;28;20126;-85
2021/10/25 02:18:29;;;;;;;25.60;16.00;;;6.10;99.90;;;;;;5060679;28;20082;-86
2021/10/25 02:20:55;;;;;;;22.10;15.77;;;6.20;99.90;;;;;;5025204;28;20119;-86
2021/10/25 02:23:21;;;;;;;24.52;16.75;;;6.20;99.90;;;;;;5049702;28;20245;-86
2021/10/25 02:25:51;;;;;;;25.23;16.05;;;6.20;99.90;;;;;;5051593;28;20040;-85
2021/10/25 02:28:17;;;;;;;24.85;16.08;;;6.20;99.90;;;;;;5025966;28;20035;-86
2021/10/25 02:30:43;;;;;;;26.58;15.40;;;6.20;99.90;;;;;;5065280;28;20037;-87
2021/10/25 02:33:08;;;;;;;26.25;16.80;;;6.20;99.90;;;;;;5037236;28;20033;-86
2021/10/25 02:35:34;;;;;;;25.60;16.60;;;6.20;99.90;;;;;;5081941;28;20486;-86
2021/10/25 02:38:00;;;;;;;25.23;16.48;;;6.10;99.90;;;;;;5053001;28;20051;-86
2021/10/25 02:40:28;;;;;;;28.25;17.27;;;6.10;99.90;;;;;;5024271;28;20040;-85
2021/10/25 02:42:55;;;;;;;26.15;17.05;;;6.10;99.90;;;;;;5103496;27;20048;-85
2021/10/25 02:45:22;;;;;;;28.33;17.25;;;6.10;99.90;;;;;;5065341;28;20455;-86
2021/10/25 02:47:48;;;;;;;22.88;16.38;;;6.10;99.90;;;;;;5073787;28;20062;-86
2021/10/25 02:50:15;;;;;;;26.30;16.30;;;6.10;99.90;;;;;;5035177;28;20032;-86
2021/10/25 02:52:41;;;;;;;25.83;16.23;;;6.00;99.90;;;;;;5048730;28;20067;-85
2021/10/25 02:55:07;;;;;;;30.98;17.10;;;6.10;99.90;;;;;;5047733;28;20066;-86
2021/10/25 02:57:34;;;;;;;25.30;16.77;;;6.00;99.90;;;;;;5045728;28;20124;-86
2021/10/25 02:59:59;;;;;;;25.48;17.08;;;6.10;99.90;;;;;;5063044;28;20561;-85
2021/10/25 03:02:26;;;;;;;29.48;17.00;;;6.00;99.90;;;;;;5033448;28;20040;-85
2021/10/25 03:04:52;;;;;;;25.75;17.02;;;6.00;99.90;;;;;;5039752;28;20588;-86
2021/10/25 03:07:18;;;;;;;28.75;18.13;;;6.00;99.90;;;;;;5034224;28;20041;-86
2021/10/25 03:09:43;;;;;;;29.95;17.38;;;6.00;99.90;;;;;;5034390;28;20503;-84
2021/10/25 03:12:09;;;;;;;31.33;17.35;;;5.90;99.90;;;;;;5046530;28;20055;-84
2021/10/25 03:14:35;;;;;;;22.95;16.23;;;5.90;99.90;;;;;;5038508;28;20040;-84
2021/10/25 03:17:01;;;;;;;24.40;17.02;;;5.90;99.90;;;;;;5030913;28;20042;-84
2021/10/25 03:19:27;;;;;;;27.83;17.77;;;5.90;99.90;;;;;;5044122;28;20041;-84
2021/10/25 03:21:52;;;;;;;25.15;17.60;;;5.90;99.90;;;;;;5036300;28;20127;-84
2021/10/25 03:24:18;;;;;;;27.15;18.35;;;5.90;99.90;;;;;;5032967;28;20040;-84
2021/10/25 03:26:44;;;;;;;26.00;18.00;;;5.90;99.90;;;;;;5052068;28;20041;-83
2021/10/25 03:29:11;;;;;;;32.70;17.55;;;5.90;99.90;;;;;;5043415;28;20032;-84
2021/10/25 03:31:37;;;;;;;27.48;18.10;;;5.90;99.90;;;;;;5031616;28;20036;-84
2021/10/25 03:34:03;;;;;;;29.83;19.40;;;5.90;99.90;;;;;;5065197;28;20047;-84
2021/10/25 03:36:30;;;;;;;25.60;17.35;;;5.90;99.90;;;;;;5068058;28;20090;-82
2021/10/25 03:38:57;;;;;;;30.88;18.65;;;5.90;99.90;;;;;;5075497;28;20076;-84
2021/10/25 03:41:33;;;;;;;24.08;17.13;;;5.90;99.90;;;;;;5059479;28;20037;-83
2021/10/25 03:44:04;;;;;;;25.20;17.98;;;5.90;99.90;;;;;;5036685;28;20040;-84
2021/10/25 03:46:47;;;;;;;26.08;18.98;;;5.90;99.90;;;;;;5066511;28;20037;-85
2021/10/25 03:49:38;;;;;;;31.63;18.75;;;5.90;99.90;;;;;;5064214;28;20123;-84
2021/10/25 03:52:11;;;;;;;33.33;18.83;;;5.90;99.90;;;;;;5093944;27;20043;-84
2021/10/25 03:54:48;;;;;;;29.77;18.02;;;5.90;99.90;;;;;;5034437;28;20192;-85
2021/10/25 04:27:31;;;;;;;30.40;18.60;;;6.00;99.90;;;;;;5086232;28;20525;-84
2021/10/25 04:30:03;;;;;;;26.67;18.85;;;6.00;99.90;;;;;;5076434;28;20036;-84
2021/10/25 04:32:29;;;;;;;26.60;17.30;;;6.00;99.90;;;;;;5048403;28;20039;-84
2021/10/25 04:34:54;;;;;;;27.65;17.77;;;6.00;99.90;;;;;;5050777;28;20494;-82
2021/10/25 04:37:20;;;;;;;32.38;19.00;;;6.00;99.90;;;;;;5066604;28;20458;-85
2021/10/25 04:39:46;;;;;;;28.15;18.00;;;6.00;99.90;;;;;;5047000;28;20041;-85
2021/10/25 04:42:16;;;;;;;26.52;18.33;;;6.10;99.90;;;;;;5032511;28;20032;-85
2021/10/25 04:44:42;;;;;;;27.13;18.15;;;6.10;99.90;;;;;;5058069;28;20535;-85
2021/10/25 04:47:08;;;;;;;27.85;18.75;;;6.10;99.90;;;;;;5030576;28;20071;-84
2021/10/25 04:49:34;;;;;;;30.65;17.27;;;6.20;99.90;;;;;;5053819;28;20067;-83
2021/10/25 04:52:00;;;;;;;27.75;18.65;;;6.10;99.90;;;;;;5045114;28;20071;-84
2021/10/25 04:54:25;;;;;;;29.00;18.83;;;6.20;99.90;;;;;;5032429;28;20502;-84
2021/10/25 04:56:51;;;;;;;30.98;18.60;;;6.20;99.90;;;;;;5016818;28;20090;-84
2021/10/25 04:59:17;;;;;;;29.13;18.63;;;6.20;99.90;;;;;;5037648;28;20040;-85
2021/10/25 05:01:43;;;;;;;26.48;18.23;;;6.20;99.90;;;;;;5065399;28;20056;-84
2021/10/25 05:04:09;;;;;;;27.20;17.05;;;6.30;99.90;;;;;;5029369;28;20037;-84
2021/10/25 05:06:34;;;;;;;25.33;18.48;;;6.30;99.90;;;;;;5014994;28;20040;-84
2021/10/25 05:09:00;;;;;;;28.52;18.85;;;6.40;99.90;;;;;;5035327;28;20377;-84
2021/10/25 05:11:27;;;;;;;27.63;17.58;;;6.40;99.90;;;;;;5058052;28;20032;-85
2021/10/25 05:13:53;;;;;;;28.33;18.58;;;6.40;99.90;;;;;;5016009;28;20483;-84
2021/10/25 05:16:18;;;;;;;23.58;16.35;;;6.40;99.90;;;;;;5035600;28;20085;-83
2021/10/25 05:18:44;;;;;;;25.88;17.88;;;6.50;99.90;;;;;;5023496;28;20128;-83
2021/10/25 05:21:10;;;;;;;27.17;17.00;;;6.50;99.90;;;;;;5028457;28;20056;-83
2021/10/25 05:23:35;;;;;;;25.08;16.38;;;6.50;99.90;;;;;;5035362;28;20154;-84
2021/10/25 05:26:02;;;;;;;27.67;17.90;;;6.60;99.90;;;;;;5063387;28;20036;-83
2021/10/25 05:28:27;;;;;;;28.05;17.95;;;6.60;99.90;;;;;;5029237;28;20029;-84
2021/10/25 05:30:53;;;;;;;26.05;17.65;;;6.60;99.90;;;;;;5047326;28;20045;-84
2021/10/25 05:33:19;;;;;;;29.42;17.65;;;6.70;99.90;;;;;;5046422;28;20484;-84
2021/10/25 05:35:45;;;;;;;30.15;18.48;;;6.70;99.90;;;;;;5062146;28;20044;-84
2021/10/25 05:38:12;;;;;;;24.52;16.45;;;6.70;99.90;;;;;;5027566;28;20040;-83
2021/10/25 05:40:39;;;;;;;29.73;17.30;;;6.80;99.90;;;;;;5015284;28;20167;-84
2021/10/25 05:43:06;;;;;;;26.08;17.88;;;6.80;99.90;;;;;;5051020;28;20068;-84
2021/10/25 05:45:32;;;;;;;24.88;17.27;;;6.80;99.90;;;;;;5031146;28;20621;-84
2021/10/25 05:47:59;;;;;;;27.60;17.90;;;6.90;99.90;;;;;;5057623;28;20126;-84
2021/10/25 05:50:24;;;;;;;24.73;17.15;;;6.90;99.90;;;;;;5048467;28;20040;-86
2021/10/25 05:52:50;;;;;;;25.65;17.55;;;6.90;99.90;;;;;;5067785;28;20037;-84
2021/10/25 05:55:22;;;;;;;27.50;17.30;;;7.00;99.90;;;;;;5048332;28;20037;-83
2021/10/25 05:57:52;;;;;;;27.08;17.05;;;7.00;99.90;;;;;;5056456;28;20036;-84
2021/10/25 06:00:26;;;;;;;25.05;17.00;;;7.00;99.90;;;;;;5046191;28;20036;-83
2021/10/25 06:02:54;;;;;;;24.95;17.10;;;7.00;99.90;;;;;;5086337;28;20041;-84
2021/10/25 06:05:24;;;;;;;30.80;17.58;;;7.10;99.90;;;;;;5040181;28;20040;-84
2021/10/25 06:07:52;;;;;;;30.67;17.73;;;7.10;99.90;;;;;;5047980;28;20075;-85
2021/10/25 06:10:19;;;;;;;26.55;17.48;;;7.10;99.90;;;;;;5052659;28;20037;-84
2021/10/25 06:12:48;;;;;;;23.65;16.20;;;7.10;99.90;;;;;;5035319;28;20502;-84
2021/10/25 06:15:19;;;;;;;27.33;16.55;;;7.20;99.90;;;;;;5055181;28;20044;-82
2021/10/25 06:17:55;;;;;;;33.25;17.63;;;7.20;99.90;;;;;;5024116;28;20033;-84
2021/10/25 06:20:26;;;;;;;24.88;16.38;;;7.20;99.90;;;;;;5034264;28;20037;-82
2021/10/25 06:22:52;;;;;;;24.20;16.38;;;7.20;99.90;;;;;;5098810;28;20054;-83
2021/10/25 06:25:22;;;;;;;24.40;16.83;;;7.30;99.90;;;;;;5048809;28;20095;-83
2021/10/25 06:27:48;;;;;;;25.13;17.13;;;7.30;99.90;;;;;;5049322;28;20507;-83
2021/10/25 06:30:15;;;;;;;25.48;16.77;;;7.30;99.90;;;;;;5037638;28;20093;-82
2021/10/25 06:32:42;;;;;;;24.48;16.98;;;7.30;99.90;;;;;;5072136;28;20036;-83
2021/10/25 06:35:11;;;;;;;26.52;16.48;;;7.30;99.90;;;;;;5067023;28;20036;-85
2021/10/25 06:38:00;;;;;;;28.77;17.52;;;7.30;99.90;;;;;;5050319;28;20499;-83
2021/10/25 06:40:28;;;;;;;27.90;16.60;;;7.30;99.90;;;;;;5034723;28;20064;-83
2021/10/25 06:42:54;;;;;;;26.27;16.95;;;7.40;99.90;;;;;;5034058;28;20045;-84
2021/10/25 06:45:21;;;;;;;26.08;17.35;;;7.40;99.90;;;;;;5032617;28;20487;-84
2021/10/25 06:47:49;;;;;;;27.48;17.13;;;7.50;99.90;;;;;;5048761;28;20116;-82
2021/10/25 06:50:17;;;;;;;25.55;17.50;;;7.50;99.90;;;;;;5051269;28;20086;-84
2021/10/25 06:52:43;;;;;;;27.08;16.30;;;7.50;99.90;;;;;;5047948;28;20084;-84
2021/10/25 06:55:08;;;;;;;28.75;17.20;;;7.50;99.90;;;;;;5050582;28;20036;-83
2021/10/25 06:57:35;;;;;;;29.15;17.20;;;7.60;99.90;;;;;;5034976;28;20120;-84
2021/10/25 07:00:04;;;;;;;29.98;17.00;;;7.60;99.90;;;;;;5051805;28;20398;-83
2021/10/25 07:02:30;;;;;;;23.88;17.13;;;7.70;99.90;;;;;;5056114;28;20055;-84
2021/10/25 07:04:56;;;;;;;24.50;17.75;;;7.70;99.90;;;;;;5071852;28;20037;-84
2021/10/25 07:07:25;;;;;;;26.92;17.83;;;7.70;99.90;;;;;;5030299;28;20089;-84
2021/10/25 07:09:51;;;;;;;27.38;16.88;;;7.80;99.90;;;;;;5040154;28;20391;-84
2021/10/25 07:12:17;;;;;;;25.23;17.13;;;7.80;99.90;;;;;;5041703;28;20051;-83
2021/10/25 07:14:44;;;;;;;27.05;17.13;;;7.90;99.90;;;;;;5051953;28;20063;-84
2021/10/25 08:03:22;;;;;;;20.90;15.45;;;8.70;99.90;;;;;;5069151;28;20041;-84
2021/10/25 08:06:12;;;;;;;19.05;14.82;;;8.70;99.90;;;;;;5022270;28;20060;-84
2021/10/25 08:11:15;;;;;;;23.45;14.65;;;8.90;99.90;;;;;;5065606;28;20039;-82
2021/10/25 08:13:43;;;;;;;20.60;14.40;;;8.90;99.90;;;;;;5035905;28;20040;-83
2021/10/25 08:21:17;;;;;;;22.15;14.20;;;9.00;99.90;;;;;;5050747;28;20051;-83
2021/10/25 08:23:44;;;;;;;20.35;13.98;;;9.00;99.90;;;;;;5052467;28;20090;-82
2021/10/25 08:26:13;;;;;;;24.42;15.65;;;9.10;99.90;;;;;;5032386;28;20043;-82
2021/10/25 08:28:39;;;;;;;22.80;14.77;;;9.10;99.90;;;;;;5015977;28;20043;-83
2021/10/25 08:31:08;;;;;;;27.15;15.60;;;9.10;99.90;;;;;;5032829;28;20058;-83
2021/10/25 08:41:25;;;;;;;24.10;16.60;;;9.30;99.90;;;;;;5052174;28;20072;-82
2021/10/25 08:43:53;;;;;;;28.13;16.45;;;9.30;99.90;;;;;;5039006;28;20696;-83
2021/10/25 08:46:20;;;;;;;29.63;17.02;;;9.30;99.90;;;;;;5031802;28;20033;-84
2021/10/25 08:48:48;;;;;;;26.38;16.05;;;9.30;99.90;;;;;;5065553;28;20037;-84
2021/10/25 08:51:16;;;;;;;28.77;16.67;;;9.30;99.90;;;;;;5042186;28;20119;-85
2021/10/25 08:53:43;;;;;;;25.05;15.38;;;9.30;99.90;;;;;;5062522;28;20090;-84
2021/10/25 08:56:09;;;;;;;25.80;16.25;;;9.40;99.90;;;;;;5079329;28;20123;-85
2021/10/25 08:58:38;;;;;;;26.30;17.23;;;9.40;99.90;;;;;;5066134;28;20036;-83
2021/10/25 09:01:04;;;;;;;25.77;16.27;;;9.30;99.90;;;;;;5070986;28;20067;-81
2021/10/25 09:03:30;;;;;;;24.60;17.10;;;9.40;99.90;;;;;;5057750;28;20094;-83
2021/10/25 09:06:01;;;;;;;28.50;18.42;;;9.40;99.90;;;;;;5033334;28;20040;-82
2021/10/25 09:08:27;;;;;;;28.38;18.00;;;9.50;99.90;;;;;;5048671;28;20106;-83
2021/10/25 09:10:54;;;;;;;29.80;18.75;;;9.50;99.90;;;;;;5037692;28;20416;-83
2021/10/25 09:13:23;;;;;;;27.83;17.42;;;9.50;99.90;;;;;;5064985;28;20032;-83
2021/10/25 09:15:51;;;;;;;27.17;18.25;;;9.60;99.90;;;;;;5067202;28;20560;-83
2021/10/25 09:18:23;;;;;;;30.35;16.73;;;9.60;99.90;;;;;;5106970;27;20100;-83
2021/10/25 09:21:10;;;;;;;36.88;18.55;;;9.60;99.90;;;;;;5088114;28;20040;-84
2021/10/25 09:23:50;;;;;;;32.13;17.05;;;9.60;99.90;;;;;;5049334;28;20079;-83
2021/10/25 09:26:24;;;;;;;29.67;18.52;;;9.60;99.90;;;;;;5083854;28;20043;-83
2021/10/25 09:28:53;;;;;;;30.77;17.17;;;9.60;99.90;;;;;;5084736;28;20119;-82
2021/10/25 09:31:32;;;;;;;26.95;17.35;;;9.70;99.90;;;;;;5060628;28;20036;-84
2021/10/25 09:34:06;;;;;;;24.25;17.15;;;9.70;99.90;;;;;;5031464;28;20040;-85
2021/10/25 09:36:39;;;;;;;28.15;15.55;;;9.70;99.90;;;;;;5071206;28;20586;-83
2021/10/25 09:39:19;;;;;;;22.60;15.45;;;9.80;99.90;;;;;;5040947;28;20042;-83
2021/10/25 09:50:07;;;;;;;23.00;13.57;;;9.90;99.90;;;;;;5050305;28;20044;-83
2021/10/25 09:52:35;;;;;;;19.60;13.27;;;10.00;99.90;;;;;;5082797;28;20486;-84
2021/10/25 09:55:08;;;;;;;19.58;13.98;;;10.00;99.90;;;;;;5088874;28;20055;-82
2021/10/25 09:58:02;;;;;;;24.38;13.90;;;10.00;99.90;;;;;;5088159;28;20127;-82
2021/10/25 10:00:21;;;;;;;23.35;15.15;;;10.00;99.90;;;;;;5050336;28;20505;-85
2021/10/25 10:02:48;;;;;;;19.45;14.02;;;10.10;99.90;;;;;;5083480;28;20044;-83
2021/10/25 10:05:18;;;;;;;20.48;14.18;;;10.10;99.90;;;;;;5053480;28;20049;-84
2021/10/25 10:07:45;;;;;;;22.10;13.90;;;10.10;99.90;;;;;;5052942;28;20048;-85
2021/10/25 10:10:14;;;;;;;19.15;13.43;;;10.00;99.90;;;;;;5047449;28;20033;-85
2021/10/25 10:12:43;;;;;;;23.73;13.57;;;10.10;99.90;;;;;;5068901;28;20044;-84
2021/10/25 10:15:13;;;;;;;21.80;13.38;;;10.00;99.90;;;;;;5074833;27;20092;-86
2021/10/25 10:17:59;;;;;;;21.92;13.82;;;10.10;99.90;;;;;;5040914;28;20044;-84
2021/10/25 10:20:35;;;;;;;18.75;13.20;;;10.10;99.90;;;;;;5046020;28;20032;-85
2021/10/25 10:23:16;;;;;;;24.15;14.73;;;10.10;99.90;;;;;;5051522;28;20116;-83
2021/10/25 10:25:52;;;;;;;25.30;14.70;;;10.10;99.90;;;;;;5071938;28;20699;-83
2021/10/25 10:28:30;;;;;;;20.65;15.02;;;10.10;99.90;;;;;;5052549;28;21170;-83
2021/10/25 10:30:59;;;;;;;26.52;15.73;;;10.10;99.90;;;;;;5046817;28;20093;-84
2021/10/25 10:33:44;;;;;;;26.73;16.75;;;10.10;99.90;;;;;;5046559;28;20403;-84
2021/10/25 10:36:21;;;;;;;29.35;16.95;;;10.00;99.90;;;;;;5068744;28;20040;-84
2021/10/25 10:39:04;;;;;;;31.88;17.20;;;10.00;99.90;;;;;;5054044;28;20036;-83
2021/10/25 10:41:51;;;;;;;27.77;18.15;;;10.00;99.90;;;;;;5063875;28;20483;-84
2021/10/25 10:44:20;;;;;;;29.70;17.45;;;10.00;99.90;;;;;;5063333;28;20032;-84
2021/10/25 10:46:54;;;;;;;26.90;16.80;;;10.00;99.90;;;;;;5083226;28;20115;-83
2021/10/25 10:49:42;;;;;;;29.15;17.23;;;9.90;99.90;;;;;;5049404;28;20136;-83
2021/10/25 10:55:05;;;;;;;27.50;18.02;;;9.90;99.90;;;;;;5070160;28;20036;-84
2021/10/25 11:00:36;;;;;;;33.30;21.17;;;9.90;99.90;;;;;;5066690;28;20068;-84
2021/10/25 11:03:05;;;;;;;29.35;19.92;;;9.90;99.90;;;;;;5052463;28;20040;-83
2021/10/25 11:05:43;;;;;;;33.33;21.48;;;9.90;99.90;;;;;;5066508;28;20040;-83
2021/10/25 11:08:16;;;;;;;32.63;20.40;;;9.90;99.90;;;;;;5079190;28;20028;-83
2021/10/25 11:10:45;;;;;;;32.17;19.70;;;9.90;99.90;;;;;;5053392;28;20174;-83
2021/10/25 11:13:20;;;;;;;37.50;23.02;;;9.90;99.90;;;;;;5049230;28;20055;-82
2021/10/25 11:16:09;;;;;;;37.80;22.73;;;9.90;99.90;;;;;;5050624;28;20047;-83
2021/10/25 11:18:37;;;;;;;43.60;24.85;;;9.90;99.90;;;;;;5078763;28;20036;-82
2021/10/25 11:21:09;;;;;;;40.42;23.60;;;9.90;99.90;;;;;;5069698;28;20032;-82
2021/10/25 11:23:40;;;;;;;42.28;23.80;;;9.90;99.90;;;;;;5101965;28;20518;-81
2021/10/25 11:26:16;;;;;;;47.00;25.40;;;9.90;99.90;;;;;;5046561;28;20090;-82
2021/10/25 11:29:12;;;;;;;40.75;23.63;;;9.90;99.90;;;;;;5041535;28;20067;-81
2021/10/25 11:31:48;;;;;;;43.88;25.42;;;9.90;99.90;;;;;;5069415;28;20153;-81
2021/10/25 11:34:39;;;;;;;41.10;24.05;;;9.90;99.90;;;;;;5059513;28;20033;-81
2021/10/25 11:37:09;;;;;;;49.70;27.08;;;9.90;99.90;;;;;;5042610;28;20136;-84
2021/10/25 11:39:57;;;;;;;48.20;26.50;;;9.90;99.90;;;;;;5043590;28;20048;-83
2021/10/25 11:42:31;;;;;;;45.20;26.48;;;10.00;99.90;;;;;;5078057;28;20037;-81
2021/10/25 11:45:00;;;;;;;46.15;26.15;;;10.00;99.90;;;;;;5050805;28;20082;-82
2021/10/25 11:47:28;;;;;;;45.72;25.58;;;10.00;99.90;;;;;;5044048;28;20047;-82
2021/10/25 11:50:08;;;;;;;40.67;23.73;;;10.10;99.90;;;;;;5083458;28;20042;-81
2021/10/25 11:52:40;;;;;;;36.45;22.88;;;10.10;99.90;;;;;;5044609;28;20040;-80
2021/10/25 11:55:08;;;;;;;36.97;22.13;;;10.10;99.90;;;;;;5051796;28;20036;-80
2021/10/25 11:57:34;;;;;;;36.70;22.48;;;10.10;99.90;;;;;;5034930;28;20044;-80
2021/10/25 12:00:09;;;;;;;41.33;22.58;;;10.20;99.90;;;;;;5063405;28;20113;-80
2021/10/25 12:02:36;;;;;;;37.50;22.98;;;10.20;99.90;;;;;;5050113;28;20064;-82
2021/10/25 12:05:06;;;;;;;35.30;22.13;;;10.20;99.90;;;;;;5086941;28;20040;-82
2021/10/25 12:07:32;;;;;;;47.17;24.40;;;10.30;99.90;;;;;;5090729;28;20037;-82
2021/10/25 12:10:00;;;;;;;35.58;22.15;;;10.30;99.90;;;;;;5036429;28;20043;-83
2021/10/25 12:12:27;;;;;;;35.55;21.58;;;10.30;99.90;;;;;;5050401;28;20560;-81
2021/10/25 12:14:57;;;;;;;40.03;23.60;;;10.30;99.90;;;;;;5068475;28;20090;-81
2021/10/25 12:17:28;;;;;;;43.10;21.88;;;10.40;99.90;;;;;;5045485;28;20158;-82
2021/10/25 12:19:53;;;;;;;43.53;23.70;;;10.40;99.90;;;;;;5044478;28;20563;-81
2021/10/25 12:22:20;;;;;;;38.03;20.90;;;10.40;99.90;;;;;;5050993;28;20048;-83
2021/10/25 12:24:51;;;;;;;31.92;21.30;;;10.40;99.90;;;;;;5037450;28;20041;-81
2021/10/25 12:27:42;;;;;;;33.60;23.05;;;10.40;99.90;;;;;;5055585;28;20038;-82
2021/10/25 12:30:10;;;;;;;33.03;22.58;;;10.40;99.90;;;;;;5057360;28;20041;-83
2021/10/25 12:32:48;;;;;;;34.22;21.05;;;10.50;99.90;;;;;;5086274;28;20032;-83
2021/10/25 12:35:14;;;;;;;31.92;20.50;;;10.50;99.90;;;;;;5084092;28;20047;-82
2021/10/25 12:37:40;;;;;;;29.00;19.60;;;10.50;99.90;;;;;;5041719;28;20100;-82
2021/10/25 12:40:18;;;;;;;32.58;20.15;;;10.50;99.90;;;;;;5040562;28;20068;-83
2021/10/25 12:42:44;;;;;;;33.00;19.92;;;10.50;99.90;;;;;;5098089;28;20040;-82
2021/10/25 12:45:16;;;;;;;31.83;19.83;;;10.50;99.90;;;;;;5050110;28;20041;-80
2021/10/25 12:47:41;;;;;;;33.05;19.80;;;10.50;99.90;;;;;;5044394;28;20036;-82
2021/10/25 12:50:15;;;;;;;33.35;20.52;;;10.60;99.90;;;;;;5046591;28;20028;-82
2021/10/25 12:52:43;;;;;;;37.42;21.13;;;10.60;99.90;;;;;;5049202;28;20116;-82
2021/10/25 12:55:09;;;;;;;32.00;19.67;;;10.60;99.90;;;;;;5044745;28;20403;-80
2021/10/25 12:57:37;;;;;;;30.00;19.45;;;10.70;99.90;;;;;;5035344;28;20040;-82
2021/10/25 13:00:11;;;;;;;38.00;20.88;;;10.70;99.90;;;;;;5065482;28;20064;-82
2021/10/25 13:02:42;;;;;;;27.60;17.13;;;10.80;99.90;;;;;;5058712;28;20071;-80
2021/10/25 13:05:16;;;;;;;28.95;19.73;;;10.80;99.90;;;;;;5081314;28;20497;-82
2021/10/25 13:07:56;;;;;;;28.13;18.30;;;10.90;99.90;;;;;;5056217;28;20025;-81
2021/10/25 13:10:32;;;;;;;31.23;18.67;;;10.90;99.90;;;;;;5058360;28;20056;-82
2021/10/25 13:12:59;;;;;;;28.08;18.90;;;10.90;99.90;;;;;;5116256;28;20040;-82
2021/10/25 13:15:26;;;;;;;29.30;18.98;;;10.90;99.90;;;;;;5067554;28;20105;-82
2021/10/25 13:17:57;;;;;;;27.27;16.85;;;10.90;99.90;;;;;;5084133;28;20028;-83
2021/10/25 13:20:28;;;;;;;31.30;16.80;;;11.00;99.90;;;;;;5059329;28;20064;-83
2021/10/25 13:23:02;;;;;;;26.88;18.58;;;10.90;99.90;;;;;;5067319;28;20051;-81
2021/10/25 13:25:39;;;;;;;28.02;18.05;;;11.00;99.90;;;;;;5060673;28;20073;-83
2021/10/25 13:28:07;;;;;;;28.70;19.00;;;11.00;99.90;;;;;;5107051;28;20126;-83
2021/10/25 13:30:39;;;;;;;25.42;17.58;;;11.10;99.90;;;;;;5072725;28;20033;-82
2021/10/25 13:33:08;;;;;;;33.00;18.80;;;11.10;99.90;;;;;;5072908;28;20045;-82
2021/10/25 13:35:36;;;;;;;28.27;18.88;;;11.20;99.90;;;;;;5087303;28;20036;-82
2021/10/25 13:38:07;;;;;;;31.05;17.27;;;11.20;99.90;;;;;;5081500;28;20068;-83
2021/10/25 13:40:41;;;;;;;26.75;17.42;;;11.20;99.90;;;;;;5052526;28;20032;-83
2021/10/25 13:43:17;;;;;;;29.23;18.95;;;11.30;99.90;;;;;;5055566;28;20470;-83
2021/10/25 13:46:05;;;;;;;23.95;16.58;;;11.30;99.90;;;;;;5088655;28;20538;-83
2021/10/25 13:48:31;;;;;;;24.80;15.93;;;11.30;99.90;;;;;;5042997;28;20033;-82
2021/10/25 13:50:57;;;;;;;30.10;18.27;;;11.30;99.90;;;;;;5073215;28;20458;-83
2021/10/25 13:53:26;;;;;;;26.52;17.92;;;11.30;99.90;;;;;;5064244;28;20029;-84
2021/10/25 13:56:10;;;;;;;23.23;16.40;;;11.40;99.90;;;;;;5050047;28;20392;-83
2021/10/25 13:58:37;;;;;;;23.65;16.25;;;11.40;99.90;;;;;;5034304;28;20105;-81
2021/10/25 14:01:03;;;;;;;23.05;14.93;;;11.40;99.90;;;;;;5041364;28;20465;-82
2021/10/25 14:03:29;;;;;;;21.10;15.38;;;11.40;99.90;;;;;;5064977;28;20425;-81
2021/10/25 14:05:57;;;;;;;23.90;16.42;;;11.40;99.90;;;;;;5066570;28;20071;-81
2021/10/25 14:08:22;;;;;;;28.38;16.50;;;11.40;99.90;;;;;;5058937;28;20041;-82
2021/10/25 14:10:51;;;;;;;23.20;15.32;;;11.40;99.90;;;;;;5062588;28;20040;-82
2021/10/25 14:13:29;;;;;;;22.20;17.02;;;11.40;99.90;;;;;;5026122;28;20040;-84
2021/10/25 14:16:21;;;;;;;22.67;15.32;;;11.40;99.90;;;;;;5060723;28;20048;-83
2021/10/25 14:18:48;;;;;;;23.67;17.17;;;11.40;99.90;;;;;;5060197;28;20032;-83
2021/10/25 14:21:15;;;;;;;23.88;16.08;;;11.40;99.90;;;;;;5043212;28;20032;-83
2021/10/25 14:23:45;;;;;;;22.80;16.08;;;11.40;99.90;;;;;;5078074;28;20411;-83
2021/10/25 14:26:11;;;;;;;22.90;17.40;;;11.40;99.90;;;;;;5031313;28;20040;-83
2021/10/25 14:28:37;;;;;;;29.67;17.88;;;11.40;99.90;;;;;;5033921;28;20248;-83
2021/10/25 14:31:05;;;;;;;24.23;16.20;;;11.40;99.90;;;;;;5034605;28;20067;-84